Time;durP1;ratioP1;P1;durP2;ratioP2;P2;SDS_P1;SDS_P2;PMS_P1;PMS_P2;Temp;Humidity;BMP_temperature;BMP_pressure;BME280_temperature;BME280_humidity;BME280_pressure;Samples;Min_cycle;Max_cycle;Signal;HPM_P1;HPM_P2
2021/08/27 00:00:54;;;;;;;5.72;3.90;;;45.40;18.90;;;;;;4928645;29;20074;-57
2021/08/27 00:03:20;;;;;;;9.52;4.45;;;45.40;19.20;;;;;;4916483;29;20098;-56
2021/08/27 00:05:48;;;;;;;5.57;3.97;;;45.40;18.50;;;;;;4928517;29;20427;-55
2021/08/27 00:08:15;;;;;;;10.27;4.57;;;45.30;18.80;;;;;;4928430;29;20070;-55
2021/08/27 00:10:42;;;;;;;4.60;3.30;;;45.30;18.80;;;;;;4928045;29;20058;-58
2021/08/27 00:13:13;;;;;;;7.85;4.63;;;45.30;18.90;;;;;;4931572;29;20076;-58
2021/08/27 00:15:39;;;;;;;11.23;6.15;;;45.30;19.00;;;;;;4925298;29;20113;-56
2021/08/27 00:18:06;;;;;;;6.47;4.60;;;45.20;19.00;;;;;;4929476;29;20066;-57
2021/08/27 00:20:33;;;;;;;8.35;4.45;;;45.00;18.80;;;;;;4911367;29;20545;-58
2021/08/27 00:22:59;;;;;;;7.35;3.67;;;45.00;18.70;;;;;;4914172;29;20059;-55
2021/08/27 00:25:26;;;;;;;6.10;4.18;;;45.00;19.30;;;;;;4932972;29;20078;-59
2021/08/27 00:27:53;;;;;;;13.73;4.28;;;45.00;19.30;;;;;;4917363;29;20062;-56
2021/08/27 00:30:19;;;;;;;9.68;4.82;;;44.90;19.20;;;;;;4944141;29;20098;-59
2021/08/27 00:32:46;;;;;;;10.18;5.53;;;44.80;19.40;;;;;;4931887;29;20145;-58
2021/08/27 00:35:13;;;;;;;6.53;3.95;;;44.70;19.60;;;;;;4919415;29;20117;-59
2021/08/27 00:37:39;;;;;;;5.60;3.97;;;44.60;20.10;;;;;;4928726;29;20160;-55
2021/08/27 00:40:07;;;;;;;7.07;4.50;;;44.60;19.50;;;;;;4927731;29;20598;-58
2021/08/27 00:42:34;;;;;;;15.93;8.48;;;44.50;19.40;;;;;;4927457;29;20078;-59
2021/08/27 00:45:00;;;;;;;8.77;4.03;;;44.40;19.80;;;;;;4927584;29;20063;-56
2021/08/27 00:47:27;;;;;;;6.30;4.00;;;44.30;19.50;;;;;;4925710;29;21686;-58
2021/08/27 00:49:54;;;;;;;9.13;4.18;;;44.30;19.60;;;;;;4929576;29;20558;-59
2021/08/27 00:52:20;;;;;;;7.07;3.60;;;44.20;19.60;;;;;;4920117;29;20106;-57
2021/08/27 00:54:52;;;;;;;6.47;3.60;;;44.10;19.80;;;;;;4917766;29;20091;-59
2021/08/27 00:57:21;;;;;;;6.07;3.95;;;44.10;19.70;;;;;;4929247;29;20595;-58
2021/08/27 00:59:48;;;;;;;6.38;3.80;;;44.00;20.10;;;;;;4927841;29;20077;-59
2021/08/27 01:02:15;;;;;;;9.32;4.45;;;43.90;19.80;;;;;;4927271;29;20067;-59
2021/08/27 01:04:44;;;;;;;8.85;3.90;;;43.90;20.00;;;;;;4914134;29;20069;-59
2021/08/27 01:07:14;;;;;;;6.50;4.35;;;43.80;20.30;;;;;;4929648;29;20391;-58
2021/08/27 01:09:49;;;;;;;5.45;4.32;;;43.70;20.90;;;;;;4929707;29;20075;-59
2021/08/27 01:12:35;;;;;;;12.63;4.00;;;43.60;20.20;;;;;;4928814;29;20068;-57
2021/08/27 01:15:39;;;;;;;7.15;4.63;;;43.50;20.30;;;;;;4913590;29;20104;-58
2021/08/27 01:18:35;;;;;;;10.60;4.97;;;43.50;20.30;;;;;;4852490;29;20545;-58
2021/08/27 01:21:07;;;;;;;12.75;4.35;;;43.40;20.70;;;;;;4929461;29;20146;-57
2021/08/27 01:24:01;;;;;;;21.67;8.15;;;43.20;20.60;;;;;;4927268;29;20504;-60
2021/08/27 01:26:34;;;;;;;7.88;4.15;;;43.10;20.70;;;;;;4924274;29;20095;-58
2021/08/27 01:29:03;;;;;;;9.48;3.60;;;43.10;20.50;;;;;;4927029;29;20190;-59
2021/08/27 01:31:57;;;;;;;4.88;3.53;;;43.00;20.70;;;;;;4928761;29;20171;-59
2021/08/27 01:34:33;;;;;;;9.02;5.03;;;42.90;20.70;;;;;;4919605;29;20182;-59
2021/08/27 01:36:59;;;;;;;;;;;42.80;21.30;;;;;;4929106;29;20211;-58
2021/08/27 01:39:31;;;;;;;9.90;4.20;;;42.70;21.80;;;;;;4927360;29;19959;-58
2021/08/27 01:41:59;;;;;;;6.63;3.88;;;42.50;21.10;;;;;;4926303;29;20115;-58
2021/08/27 01:44:29;;;;;;;7.43;3.70;;;42.40;21.10;;;;;;4928938;29;20088;-59
2021/08/27 01:46:59;;;;;;;9.90;4.20;;;42.30;21.20;;;;;;4927866;29;20184;-56
2021/08/27 01:49:31;;;;;;;6.72;4.10;;;42.20;21.30;;;;;;4930144;29;20100;-58
2021/08/27 01:52:05;;;;;;;6.82;4.28;;;42.20;21.30;;;;;;4929188;29;20079;-59
2021/08/27 01:54:33;;;;;;;10.65;4.07;;;42.10;21.50;;;;;;4928799;29;20099;-58
2021/08/27 01:57:00;;;;;;;7.00;4.53;;;42.00;22.00;;;;;;4927388;29;20104;-59
2021/08/27 01:59:36;;;;;;;7.68;4.95;;;41.90;22.20;;;;;;4928489;29;20076;-58
2021/08/27 02:02:04;;;;;;;9.48;4.43;;;41.80;21.70;;;;;;4926441;29;20175;-60
2021/08/27 02:04:33;;;;;;;11.30;4.70;;;41.70;21.90;;;;;;4929383;29;20163;-58
2021/08/27 02:07:01;;;;;;;11.75;4.70;;;41.60;22.50;;;;;;4928733;29;20072;-58
2021/08/27 02:09:28;;;;;;;5.97;4.18;;;41.50;22.60;;;;;;4927556;29;20076;-57
2021/08/27 02:11:55;;;;;;;6.53;4.78;;;41.40;22.70;;;;;;4929296;29;20076;-57
2021/08/27 02:14:22;;;;;;;12.52;4.88;;;41.30;22.80;;;;;;4927517;29;20108;-58
2021/08/27 02:16:50;;;;;;;12.05;4.82;;;41.20;23.30;;;;;;4927285;29;20445;-58
2021/08/27 02:19:17;;;;;;;11.43;4.63;;;41.10;23.20;;;;;;4928440;29;20080;-56
2021/08/27 02:21:49;;;;;;;8.77;4.80;;;41.00;23.30;;;;;;4929224;29;20200;-55
2021/08/27 02:24:22;;;;;;;15.15;4.70;;;40.90;23.20;;;;;;4926734;29;20482;-59
2021/08/27 02:26:50;;;;;;;10.07;4.20;;;40.80;23.40;;;;;;4926180;29;20415;-59
2021/08/27 02:29:19;;;;;;;11.52;4.50;;;40.70;23.00;;;;;;4926806;29;20077;-59
2021/08/27 02:31:51;;;;;;;9.18;4.47;;;40.60;23.60;;;;;;4927205;29;20135;-58
2021/08/27 02:34:20;;;;;;;11.57;4.93;;;40.50;23.40;;;;;;4927300;29;20546;-57
2021/08/27 02:36:53;;;;;;;11.07;4.78;;;40.40;23.50;;;;;;4927320;29;20084;-58
2021/08/27 02:39:22;;;;;;;10.95;5.40;;;40.30;23.60;;;;;;4925583;29;20176;-56
2021/08/27 02:41:49;;;;;;;10.70;5.05;;;40.20;23.50;;;;;;4926968;29;20076;-60
2021/08/27 02:44:16;;;;;;;15.65;5.38;;;40.10;23.40;;;;;;4926171;29;20084;-58
2021/08/27 02:46:42;;;;;;;11.60;4.95;;;40.10;23.80;;;;;;4928974;29;20076;-56
2021/08/27 02:49:09;;;;;;;15.35;5.45;;;40.10;24.00;;;;;;4914907;29;20128;-58
2021/08/27 02:51:45;;;;;;;9.90;5.38;;;39.90;23.90;;;;;;4929402;29;20129;-60
2021/08/27 02:54:14;;;;;;;;;;;39.90;24.10;;;;;;4927007;29;20103;-58
2021/08/27 02:56:42;;;;;;;23.90;5.35;;;39.80;24.10;;;;;;4927284;29;20444;-59
2021/08/27 02:59:12;;;;;;;17.77;5.03;;;39.70;24.40;;;;;;4924499;29;20081;-55
2021/08/27 03:01:49;;;;;;;13.20;5.13;;;39.70;24.30;;;;;;4928722;29;20076;-59
2021/08/27 03:04:37;;;;;;;20.73;5.05;;;39.60;24.30;;;;;;4926515;29;20662;-60
2021/08/27 03:07:08;;;;;;;16.52;6.05;;;39.50;24.80;;;;;;4930977;29;20710;-57
2021/08/27 03:09:39;;;;;;;19.95;5.70;;;39.50;25.30;;;;;;4928924;29;20437;-58
2021/08/27 03:12:07;;;;;;;17.30;5.95;;;39.40;25.40;;;;;;4928061;29;20107;-56
2021/08/27 03:14:36;;;;;;;21.63;6.40;;;39.30;25.90;;;;;;4925011;29;20185;-59
2021/08/27 03:17:07;;;;;;;18.05;5.82;;;39.30;26.30;;;;;;4926954;29;20154;-58
2021/08/27 03:19:53;;;;;;;24.52;6.45;;;39.20;26.00;;;;;;4927187;29;20095;-56
2021/08/27 03:22:25;;;;;;;21.63;6.68;;;39.10;26.10;;;;;;4926701;29;20077;-58
2021/08/27 03:25:07;;;;;;;21.80;6.78;;;39.20;24.40;;;;;;4926656;29;20542;-60
2021/08/27 03:27:45;;;;;;;24.30;6.78;;;39.40;22.00;;;;;;4928654;29;20072;-60
2021/08/27 03:30:21;;;;;;;14.48;6.55;;;39.80;20.50;;;;;;4926639;29;20130;-58
2021/08/27 03:32:53;;;;;;;17.83;6.70;;;40.00;19.80;;;;;;4928281;29;20079;-58
2021/08/27 03:35:22;;;;;;;13.38;6.40;;;40.20;19.50;;;;;;4924589;29;20192;-59
2021/08/27 03:37:50;;;;;;;9.75;6.15;;;40.40;18.90;;;;;;4926705;29;20546;-58
2021/08/27 03:40:19;;;;;;;14.02;6.82;;;40.40;19.30;;;;;;4925197;29;20443;-58
2021/08/27 03:42:46;;;;;;;25.55;6.70;;;40.30;19.20;;;;;;4923399;29;20593;-59
2021/08/27 03:45:15;;;;;;;19.00;6.72;;;40.20;19.30;;;;;;4926851;29;20092;-60
2021/08/27 03:47:44;;;;;;;11.25;7.43;;;40.40;19.10;;;;;;4924552;29;20143;-57
2021/08/27 03:50:12;;;;;;;16.42;6.60;;;40.30;19.20;;;;;;4925298;29;20115;-59
2021/08/27 03:52:42;;;;;;;11.55;5.93;;;40.20;19.30;;;;;;4924510;29;20449;-60
2021/08/27 03:55:15;;;;;;;12.40;5.82;;;40.10;19.30;;;;;;4925416;29;20101;-59
2021/08/27 03:57:47;;;;;;;15.15;6.88;;;40.00;19.40;;;;;;4925472;29;20115;-57
2021/08/27 04:00:15;;;;;;;19.05;7.20;;;39.90;19.20;;;;;;4926357;29;20495;-58
2021/08/27 04:02:41;;;;;;;11.60;6.05;;;39.90;19.40;;;;;;4928613;29;20072;-58
2021/08/27 04:05:13;;;;;;;10.50;6.60;;;39.80;19.40;;;;;;4930687;29;20095;-59
2021/08/27 04:07:41;;;;;;;13.98;6.78;;;39.70;19.50;;;;;;4931309;29;20080;-58
2021/08/27 04:10:09;;;;;;;20.13;7.22;;;39.70;19.50;;;;;;4931126;29;20076;-59
2021/08/27 04:12:38;;;;;;;14.23;7.35;;;39.60;19.50;;;;;;4928348;29;20080;-59
2021/08/27 04:15:05;;;;;;;23.60;6.95;;;39.60;19.50;;;;;;4915200;29;20466;-59
2021/08/27 04:17:32;;;;;;;12.65;7.28;;;39.50;19.80;;;;;;4928860;29;20077;-59
2021/08/27 04:19:59;;;;;;;17.02;6.97;;;39.50;19.50;;;;;;4926426;29;20091;-56
2021/08/27 04:22:25;;;;;;;17.08;6.40;;;39.50;19.60;;;;;;4931266;29;20147;-58
2021/08/27 04:24:52;;;;;;;17.15;6.82;;;39.50;19.60;;;;;;4925802;29;20079;-59
2021/08/27 04:27:19;;;;;;;11.07;6.45;;;39.50;19.90;;;;;;4915246;29;20135;-60
2021/08/27 04:29:45;;;;;;;13.48;6.43;;;39.40;19.60;;;;;;4927972;29;20179;-58
2021/08/27 04:32:12;;;;;;;13.15;6.32;;;39.50;19.40;;;;;;4918739;29;20087;-58
2021/08/27 04:34:39;;;;;;;15.00;6.97;;;39.50;19.50;;;;;;4929399;29;20108;-56
2021/08/27 04:37:06;;;;;;;13.02;7.20;;;39.50;19.60;;;;;;4910178;29;20485;-59
2021/08/27 04:39:32;;;;;;;11.50;6.80;;;39.50;19.70;;;;;;4928631;29;20077;-59
2021/08/27 04:42:00;;;;;;;19.85;8.25;;;39.40;19.60;;;;;;4929392;29;20490;-59
2021/08/27 04:44:27;;;;;;;23.13;9.38;;;39.40;19.70;;;;;;4927163;29;20126;-58
2021/08/27 04:46:53;;;;;;;10.90;8.10;;;39.40;19.70;;;;;;4928613;29;20084;-58
2021/08/27 04:49:20;;;;;;;15.43;6.63;;;39.30;19.80;;;;;;4929722;29;20104;-58
2021/08/27 04:51:47;;;;;;;17.60;7.45;;;39.30;20.00;;;;;;4931274;29;20076;-59
2021/08/27 04:54:14;;;;;;;9.77;7.35;;;39.30;20.20;;;;;;4909083;29;20112;-58
2021/08/27 04:56:40;;;;;;;16.10;6.93;;;39.20;20.00;;;;;;4927630;29;20080;-59
2021/08/27 04:59:07;;;;;;;11.88;5.80;;;39.20;20.30;;;;;;4918010;29;20558;-58
2021/08/27 05:01:34;;;;;;;9.57;5.90;;;39.10;20.10;;;;;;4923581;29;20515;-58
2021/08/27 05:04:00;;;;;;;15.75;6.00;;;39.00;20.30;;;;;;4924646;29;20080;-58
2021/08/27 05:06:27;;;;;;;9.10;5.60;;;39.00;20.30;;;;;;4929756;29;20079;-58
2021/08/27 05:08:54;;;;;;;10.82;5.72;;;38.90;20.40;;;;;;4927968;29;20111;-59
2021/08/27 05:11:21;;;;;;;9.20;5.55;;;38.80;20.50;;;;;;4927552;29;20065;-57
2021/08/27 05:13:47;;;;;;;10.20;5.97;;;38.70;20.60;;;;;;4924897;29;20518;-59
2021/08/27 05:16:14;;;;;;;11.45;6.25;;;38.70;20.80;;;;;;4927115;29;20096;-58
2021/08/27 05:18:40;;;;;;;9.90;6.78;;;38.60;20.80;;;;;;4930517;29;20076;-57
2021/08/27 05:21:07;;;;;;;13.43;6.68;;;38.50;21.00;;;;;;4923736;29;20081;-61
2021/08/27 05:23:34;;;;;;;13.88;6.93;;;38.50;21.20;;;;;;4927215;29;20072;-57
2021/08/27 05:26:01;;;;;;;9.93;6.93;;;38.40;20.60;;;;;;4926750;29;20107;-56
2021/08/27 05:28:28;;;;;;;10.93;6.78;;;38.40;21.10;;;;;;4926694;29;20084;-56
2021/08/27 05:30:55;;;;;;;10.77;6.60;;;38.20;21.20;;;;;;4929329;29;20116;-58
2021/08/27 05:33:22;;;;;;;13.98;6.72;;;38.20;21.30;;;;;;4926300;29;20087;-59
2021/08/27 05:35:49;;;;;;;9.60;6.88;;;38.10;21.60;;;;;;4928558;29;20584;-57
2021/08/27 05:38:15;;;;;;;10.40;6.22;;;38.00;21.60;;;;;;4925107;29;20099;-59
2021/08/27 05:40:42;;;;;;;17.00;6.30;;;37.90;21.50;;;;;;4925041;29;20217;-58
2021/08/27 05:43:08;;;;;;;14.77;6.45;;;37.80;21.70;;;;;;4928699;29;20080;-57
2021/08/27 05:45:35;;;;;;;13.93;7.07;;;37.80;21.90;;;;;;4928422;29;20115;-58
2021/08/27 05:48:02;;;;;;;14.25;6.22;;;37.70;22.20;;;;;;4928842;29;20108;-55
2021/08/27 05:50:28;;;;;;;15.00;6.88;;;37.60;21.70;;;;;;4929468;29;20589;-58
2021/08/27 05:52:55;;;;;;;15.48;5.72;;;37.60;21.90;;;;;;4928066;29;20122;-58
2021/08/27 05:55:21;;;;;;;11.95;5.70;;;37.60;21.10;;;;;;4929377;29;20191;-61
2021/08/27 05:57:48;;;;;;;10.00;5.28;;;37.50;21.00;;;;;;4926370;29;20124;-58
2021/08/27 06:00:15;;;;;;;11.75;5.55;;;37.60;21.10;;;;;;4927968;29;20095;-56
2021/08/27 06:02:42;;;;;;;11.07;5.72;;;37.60;20.80;;;;;;4928318;29;20084;-58
2021/08/27 06:05:09;;;;;;;11.55;5.20;;;37.50;21.00;;;;;;4928055;29;20837;-56
2021/08/27 06:07:36;;;;;;;12.80;5.47;;;37.50;21.10;;;;;;4926837;29;20111;-58
2021/08/27 06:10:02;;;;;;;10.50;5.88;;;37.50;21.00;;;;;;4926375;29;20084;-58
2021/08/27 06:12:29;;;;;;;15.75;5.82;;;37.40;20.70;;;;;;4924242;29;20068;-57
2021/08/27 06:14:56;;;;;;;13.40;5.25;;;37.50;20.80;;;;;;4927837;29;20104;-57
2021/08/27 06:17:22;;;;;;;9.23;5.32;;;37.40;20.70;;;;;;4931268;29;20438;-54
2021/08/27 06:19:49;;;;;;;8.98;5.75;;;37.40;20.80;;;;;;4926564;29;20083;-57
2021/08/27 06:22:15;;;;;;;11.45;6.05;;;37.30;20.70;;;;;;4909659;29;20423;-58
2021/08/27 06:24:42;;;;;;;12.75;5.70;;;37.30;20.80;;;;;;4927213;29;20560;-58
2021/08/27 06:27:08;;;;;;;10.15;6.32;;;37.30;20.90;;;;;;4929008;29;20111;-59
2021/08/27 06:29:35;;;;;;;11.32;5.60;;;37.20;21.20;;;;;;4929382;29;20515;-59
2021/08/27 06:32:02;;;;;;;17.40;5.80;;;37.10;21.40;;;;;;4929396;29;20081;-59
2021/08/27 06:34:28;;;;;;;11.80;6.10;;;37.00;21.10;;;;;;4942880;29;20577;-58
2021/08/27 06:36:55;;;;;;;13.02;6.28;;;37.00;21.70;;;;;;4930414;29;20092;-59
2021/08/27 06:39:22;;;;;;;13.45;6.05;;;;;;;;;;4925521;29;20167;-58
2021/08/27 06:41:48;;;;;;;11.70;6.10;;;37.00;25.80;;;;;;4927618;29;20080;-55
2021/08/27 06:44:15;;;;;;;12.10;5.10;;;36.70;21.10;;;;;;4928665;29;20039;-58
2021/08/27 06:46:45;;;;;;;11.90;7.00;;;36.70;21.60;;;;;;4925145;29;20099;-55
2021/08/27 06:49:12;;;;;;;12.82;5.97;;;36.60;22.20;;;;;;4927521;29;20148;-59
2021/08/27 06:51:43;;;;;;;10.57;5.97;;;36.60;21.70;;;;;;4928988;29;20469;-59
2021/08/27 06:54:10;;;;;;;13.07;5.78;;;36.50;21.90;;;;;;4931809;29;20530;-57
2021/08/27 06:56:37;;;;;;;13.43;6.25;;;36.50;23.10;;;;;;4925377;29;20088;-56
2021/08/27 06:59:03;;;;;;;9.07;6.00;;;36.50;22.20;;;;;;4930077;29;20541;-57
2021/08/27 07:01:30;;;;;;;13.32;5.70;;;36.40;22.40;;;;;;4923942;29;20081;-56
2021/08/27 07:03:57;;;;;;;12.57;6.32;;;36.30;22.50;;;;;;4928914;29;20080;-55
2021/08/27 07:06:23;;;;;;;9.88;6.57;;;36.30;22.70;;;;;;4930225;29;20120;-57
2021/08/27 07:08:50;;;;;;;9.35;6.43;;;36.20;22.80;;;;;;4927289;29;20080;-57
2021/08/27 07:11:17;;;;;;;10.23;7.13;;;36.10;22.90;;;;;;4930105;29;20083;-56
2021/08/27 07:13:44;;;;;;;11.68;5.80;;;36.10;23.00;;;;;;4925787;29;20096;-57
2021/08/27 07:16:12;;;;;;;9.68;6.70;;;36.00;23.20;;;;;;4926821;29;20172;-57
2021/08/27 07:18:42;;;;;;;8.32;6.15;;;36.00;23.20;;;;;;4927514;29;20207;-55
2021/08/27 07:21:09;;;;;;;12.57;6.47;;;35.90;23.80;;;;;;4927605;29;20170;-55
2021/08/27 07:23:36;;;;;;;9.70;6.38;;;35.80;23.60;;;;;;4928379;29;20080;-54
2021/08/27 07:26:02;;;;;;;13.60;7.22;;;35.10;29.70;;;;;;4929272;29;20072;-57
2021/08/27 07:28:29;;;;;;;10.38;6.85;;;35.80;25.10;;;;;;4929796;29;20536;-57
2021/08/27 07:30:55;;;;;;;17.20;7.03;;;35.80;23.40;;;;;;4928009;29;20077;-58
2021/08/27 07:33:22;;;;;;;12.90;7.47;;;35.80;23.60;;;;;;4929592;29;20099;-58
2021/08/27 07:35:48;;;;;;;11.85;7.13;;;35.70;23.70;;;;;;4929198;29;20124;-56
2021/08/27 07:38:15;;;;;;;12.30;8.25;;;35.60;24.50;;;;;;4932747;29;20091;-58
2021/08/27 07:40:42;;;;;;;13.40;8.02;;;35.60;24.10;;;;;;4929793;29;20120;-58
2021/08/27 07:43:08;;;;;;;13.93;7.45;;;35.60;23.90;;;;;;4931645;29;20167;-54
2021/08/27 07:45:34;;;;;;;15.48;8.30;;;35.60;24.00;;;;;;4927449;29;20462;-55
2021/08/27 07:48:01;;;;;;;12.85;7.72;;;35.50;23.90;;;;;;4935968;29;20112;-55
2021/08/27 07:50:28;;;;;;;15.02;8.18;;;35.50;24.30;;;;;;4935920;29;20114;-58
2021/08/27 07:52:54;;;;;;;13.25;7.60;;;35.50;24.00;;;;;;4934438;29;20080;-58
2021/08/27 07:55:22;;;;;;;18.52;8.68;;;35.50;24.10;;;;;;4932064;29;20108;-55
2021/08/27 07:57:49;;;;;;;12.15;7.70;;;35.50;24.00;;;;;;4932219;29;20080;-57
2021/08/27 08:00:15;;;;;;;9.57;7.50;;;35.40;24.20;;;;;;4932226;29;20088;-56
2021/08/27 08:02:42;;;;;;;13.68;7.40;;;35.40;23.90;;;;;;4928073;29;20076;-58
2021/08/27 08:05:09;;;;;;;14.90;7.45;;;35.50;23.90;;;;;;4934229;29;20088;-54
2021/08/27 08:07:36;;;;;;;14.90;7.38;;;35.50;23.80;;;;;;4931399;29;20068;-57
2021/08/27 08:10:03;;;;;;;12.77;7.45;;;35.50;23.50;;;;;;4930593;29;20081;-58
2021/08/27 08:12:30;;;;;;;13.18;6.72;;;35.60;23.70;;;;;;4929225;29;20079;-57
2021/08/27 08:14:57;;;;;;;15.32;7.57;;;35.60;23.70;;;;;;4929188;29;20100;-57
2021/08/27 08:17:24;;;;;;;8.45;6.75;;;35.60;23.70;;;;;;4931774;29;20075;-56
2021/08/27 08:19:50;;;;;;;8.40;7.07;;;35.60;23.70;;;;;;4929614;29;20085;-57
2021/08/27 08:22:19;;;;;;;11.65;7.47;;;35.50;23.60;;;;;;4931970;29;20445;-58
2021/08/27 08:24:46;;;;;;;12.85;6.78;;;35.50;23.50;;;;;;4929316;29;20072;-58
2021/08/27 08:27:13;;;;;;;8.48;7.30;;;35.50;23.60;;;;;;4930700;29;20080;-56
2021/08/27 08:29:39;;;;;;;14.25;7.22;;;35.40;23.80;;;;;;4929226;29;20546;-57
2021/08/27 08:32:09;;;;;;;14.20;7.40;;;35.30;23.40;;;;;;4929123;29;20076;-55
2021/08/27 08:34:36;;;;;;;15.25;7.40;;;35.20;23.80;;;;;;4929440;29;20104;-56
2021/08/27 08:37:03;;;;;;;12.48;7.25;;;35.20;23.70;;;;;;4928413;29;20171;-53
2021/08/27 08:39:29;;;;;;;15.07;7.15;;;35.20;23.00;;;;;;4931128;29;20051;-57
2021/08/27 08:41:56;;;;;;;18.08;7.25;;;35.20;23.50;;;;;;4926638;29;20439;-58
2021/08/27 08:44:23;;;;;;;10.68;6.90;;;35.20;23.40;;;;;;4929626;29;20085;-58
2021/08/27 08:46:51;;;;;;;9.93;6.65;;;35.20;23.20;;;;;;4930642;29;20074;-58
2021/08/27 08:49:23;;;;;;;11.65;7.40;;;35.20;23.20;;;;;;4930865;29;20109;-58
2021/08/27 08:51:52;;;;;;;12.40;6.93;;;35.10;23.00;;;;;;4932470;29;20084;-58
2021/08/27 08:54:19;;;;;;;11.63;6.90;;;35.10;22.80;;;;;;4927127;29;20115;-55
2021/08/27 08:56:46;;;;;;;10.13;7.03;;;35.10;23.00;;;;;;4929812;29;20095;-57
2021/08/27 08:59:15;;;;;;;9.48;6.80;;;35.00;22.80;;;;;;4930381;29;20100;-58
2021/08/27 09:01:41;;;;;;;16.92;7.40;;;35.00;22.90;;;;;;4927690;29;20567;-55
2021/08/27 09:04:08;;;;;;;12.52;7.30;;;34.90;22.80;;;;;;4929102;29;20104;-53
2021/08/27 09:06:35;;;;;;;10.43;7.45;;;34.90;22.90;;;;;;4930938;29;20080;-57
2021/08/27 09:09:02;;;;;;;11.05;7.32;;;34.90;22.80;;;;;;4928742;29;20076;-57
2021/08/27 09:11:30;;;;;;;13.68;7.38;;;34.90;22.60;;;;;;4926339;29;20077;-57
2021/08/27 09:14:00;;;;;;;13.10;6.93;;;34.80;22.70;;;;;;4931887;29;20740;-53
2021/08/27 09:16:29;;;;;;;11.52;6.43;;;34.80;22.70;;;;;;4930058;29;20431;-56
2021/08/27 09:18:56;;;;;;;14.85;7.18;;;34.80;22.40;;;;;;4931947;29;20100;-54
2021/08/27 09:21:40;;;;;;;13.55;7.13;;;34.70;22.50;;;;;;4927315;29;20516;-58
2021/08/27 09:24:24;;;;;;;13.50;6.97;;;34.70;22.30;;;;;;4922072;29;20076;-55
2021/08/27 09:26:52;;;;;;;11.88;7.57;;;34.60;21.90;;;;;;4932131;29;20035;-56
2021/08/27 09:29:51;;;;;;;10.95;6.97;;;34.60;22.30;;;;;;4925179;29;20108;-56
2021/08/27 09:32:21;;;;;;;15.95;7.03;;;34.60;22.20;;;;;;4904582;29;20115;-59
2021/08/27 09:34:58;;;;;;;12.15;6.93;;;34.60;22.30;;;;;;4932589;29;20092;-55
2021/08/27 09:37:36;;;;;;;9.68;7.05;;;34.60;22.30;;;;;;4929075;29;20072;-56
2021/08/27 09:40:07;;;;;;;14.00;7.00;;;34.40;22.40;;;;;;4930618;29;20080;-55
2021/08/27 09:42:39;;;;;;;13.85;7.20;;;34.50;22.90;;;;;;4930129;29;20088;-57
2021/08/27 09:45:06;;;;;;;16.10;7.75;;;34.40;22.70;;;;;;4929220;29;20095;-57
2021/08/27 09:47:32;;;;;;;15.50;7.32;;;34.40;23.40;;;;;;4928755;29;20114;-56
2021/08/27 09:50:19;;;;;;;14.45;7.28;;;34.40;22.40;;;;;;4926167;29;20426;-55
2021/08/27 09:52:58;;;;;;;13.40;7.30;;;;;;;;;;4928106;29;20112;-55
2021/08/27 09:55:26;;;;;;;14.85;7.00;;;34.30;22.40;;;;;;4926147;29;20131;-55
2021/08/27 09:58:11;;;;;;;17.05;6.63;;;34.20;22.50;;;;;;4928213;29;20075;-57
2021/08/27 10:00:40;;;;;;;14.60;7.20;;;34.30;22.60;;;;;;4929814;29;20139;-55
2021/08/27 10:03:18;;;;;;;13.18;7.05;;;34.20;22.40;;;;;;4927644;29;20076;-55
2021/08/27 10:05:45;;;;;;;17.30;7.22;;;34.20;22.20;;;;;;4928980;29;20102;-57
2021/08/27 10:08:20;;;;;;;12.30;6.45;;;34.10;22.00;;;;;;4926322;29;20020;-58
2021/08/27 10:10:49;;;;;;;20.30;7.28;;;34.10;22.50;;;;;;4930639;29;20100;-56
2021/08/27 10:13:16;;;;;;;16.50;7.15;;;34.10;22.80;;;;;;4928547;29;20112;-55
2021/08/27 10:15:43;;;;;;;10.93;7.00;;;34.10;22.00;;;;;;4926805;29;20186;-54
2021/08/27 10:18:11;;;;;;;19.08;7.13;;;34.10;22.10;;;;;;4915605;29;20086;-53
2021/08/27 10:20:44;;;;;;;13.23;7.10;;;34.00;21.50;;;;;;4932913;29;20124;-57
2021/08/27 10:23:14;;;;;;;16.25;7.18;;;34.00;21.60;;;;;;4926816;29;20155;-58
2021/08/27 10:25:41;;;;;;;13.40;6.78;;;34.00;21.50;;;;;;4929271;29;20112;-56
2021/08/27 10:28:09;;;;;;;12.07;6.72;;;34.00;21.50;;;;;;4927959;29;20111;-56
2021/08/27 10:31:05;;;;;;;14.88;7.03;;;33.90;21.20;;;;;;4931099;29;20102;-55
2021/08/27 10:33:41;;;;;;;8.60;6.47;;;33.90;21.60;;;;;;4927061;29;20507;-54
2021/08/27 10:36:31;;;;;;;10.20;5.82;;;33.80;21.80;;;;;;4929513;29;20104;-56
2021/08/27 10:38:59;;;;;;;12.20;6.13;;;33.80;22.20;;;;;;4928238;29;20080;-54
2021/08/27 10:41:39;;;;;;;12.27;6.75;;;33.80;21.80;;;;;;4927037;29;20076;-57
2021/08/27 10:44:10;;;;;;;12.57;6.40;;;33.80;21.50;;;;;;4926786;29;20076;-56
2021/08/27 10:46:48;;;;;;;9.65;6.40;;;33.70;21.40;;;;;;4928375;29;20076;-54
2021/08/27 10:49:23;;;;;;;10.88;6.50;;;33.70;21.50;;;;;;4927344;29;20541;-55
2021/08/27 10:51:51;;;;;;;14.40;6.05;;;33.70;21.70;;;;;;4927493;29;20071;-58
2021/08/27 10:54:18;;;;;;;12.25;6.30;;;33.60;21.40;;;;;;4928909;29;20096;-56
2021/08/27 10:56:52;;;;;;;8.80;5.97;;;33.60;21.00;;;;;;4926935;29;20043;-54
2021/08/27 10:59:21;;;;;;;10.70;6.32;;;33.60;21.10;;;;;;4929976;29;20099;-56
2021/08/27 11:02:08;;;;;;;13.07;5.45;;;33.60;21.60;;;;;;4928246;29;20082;-58
2021/08/27 11:04:42;;;;;;;11.52;6.85;;;33.60;21.60;;;;;;4926966;29;20086;-56
2021/08/27 11:07:18;;;;;;;15.77;6.45;;;33.60;21.70;;;;;;4929893;29;20084;-55
2021/08/27 11:10:09;;;;;;;10.35;5.97;;;33.50;21.90;;;;;;4934001;29;20445;-57
2021/08/27 11:12:36;;;;;;;13.55;6.82;;;33.50;22.20;;;;;;4930549;29;20084;-54
2021/08/27 11:15:26;;;;;;;11.23;6.38;;;33.40;22.30;;;;;;4931742;29;20088;-56
2021/08/27 11:18:12;;;;;;;12.68;6.57;;;33.40;22.40;;;;;;4936680;29;20553;-58
2021/08/27 11:20:39;;;;;;;12.07;6.65;;;33.30;22.70;;;;;;4933514;29;20176;-57
2021/08/27 11:23:06;;;;;;;10.95;5.70;;;33.30;22.60;;;;;;4933026;29;20087;-55
2021/08/27 11:25:33;;;;;;;13.95;6.40;;;33.30;22.50;;;;;;4928198;29;20554;-58
2021/08/27 11:28:13;;;;;;;14.45;6.97;;;33.30;22.70;;;;;;4930075;29;20143;-57
2021/08/27 11:31:07;;;;;;;12.18;6.47;;;33.30;22.90;;;;;;4929719;29;20659;-57
2021/08/27 11:33:45;;;;;;;18.02;6.00;;;33.30;23.00;;;;;;4931893;29;20165;-56
2021/08/27 11:36:14;;;;;;;11.95;6.00;;;33.20;23.20;;;;;;4930807;29;20115;-55
2021/08/27 11:38:41;;;;;;;13.90;6.13;;;33.20;23.50;;;;;;4931345;29;20073;-58
2021/08/27 11:41:08;;;;;;;10.30;6.25;;;33.20;23.70;;;;;;4934478;29;20091;-58
2021/08/27 11:43:43;;;;;;;15.30;6.55;;;33.20;23.80;;;;;;4934368;29;20081;-57
2021/08/27 11:46:23;;;;;;;16.85;6.55;;;33.10;23.40;;;;;;4932175;29;20080;-58
2021/08/27 11:48:57;;;;;;;10.55;6.00;;;33.10;23.50;;;;;;4933930;29;20116;-58
2021/08/27 11:51:34;;;;;;;16.95;6.28;;;33.10;23.40;;;;;;4931451;29;20559;-57
2021/08/27 11:54:19;;;;;;;11.90;6.55;;;33.10;24.00;;;;;;4928944;29;20080;-58
2021/08/27 11:56:50;;;;;;;14.45;5.95;;;;;;;;;;4931117;29;20080;-58
2021/08/27 11:59:25;;;;;;;12.30;6.80;;;33.00;23.60;;;;;;4930450;29;20076;-55
2021/08/27 12:01:52;;;;;;;15.25;6.68;;;33.20;43.40;;;;;;4927409;29;20086;-58
2021/08/27 12:04:30;;;;;;;16.23;6.05;;;32.90;23.90;;;;;;4932715;29;20076;-59
2021/08/27 12:07:16;;;;;;;11.73;6.65;;;32.90;24.20;;;;;;4930215;29;20080;-56
2021/08/27 12:09:43;;;;;;;17.58;6.18;;;32.90;24.20;;;;;;4931623;29;20091;-56
2021/08/27 12:12:33;;;;;;;15.60;6.55;;;32.90;24.60;;;;;;4931481;29;20080;-54
2021/08/27 12:15:00;;;;;;;14.88;6.45;;;32.80;24.30;;;;;;4929930;29;20100;-54
2021/08/27 12:17:28;;;;;;;9.00;6.03;;;32.80;24.50;;;;;;4929736;29;20084;-54
2021/08/27 12:19:58;;;;;;;12.68;5.95;;;32.70;23.70;;;;;;4933162;29;20172;-53
2021/08/27 12:22:32;;;;;;;12.88;6.30;;;32.60;46.30;;;;;;4933905;29;20080;-56
2021/08/27 12:24:58;;;;;;;11.40;6.18;;;32.70;36.70;;;;;;4935422;29;20102;-54
2021/08/27 12:27:26;;;;;;;14.25;6.28;;;32.60;23.60;;;;;;4930530;29;20080;-54
2021/08/27 12:30:10;;;;;;;11.23;7.05;;;32.60;24.00;;;;;;4929464;29;20080;-54
2021/08/27 12:32:38;;;;;;;11.13;6.45;;;32.60;24.50;;;;;;4930965;29;20143;-56
2021/08/27 12:35:10;;;;;;;18.50;6.50;;;32.50;24.80;;;;;;4930941;29;20520;-57
2021/08/27 12:37:39;;;;;;;12.20;6.30;;;32.50;25.20;;;;;;4933760;29;20080;-54
2021/08/27 12:40:13;;;;;;;15.00;7.05;;;32.50;24.70;;;;;;4930586;29;20092;-54
2021/08/27 12:42:55;;;;;;;11.57;6.50;;;32.50;25.10;;;;;;4911943;29;20079;-55
2021/08/27 12:45:22;;;;;;;16.80;6.50;;;32.50;25.30;;;;;;4931049;29;20087;-56
2021/08/27 12:47:51;;;;;;;11.85;7.13;;;32.50;26.00;;;;;;4930117;29;20123;-55
2021/08/27 12:50:18;;;;;;;14.93;7.47;;;32.40;26.00;;;;;;4931881;29;20094;-55
2021/08/27 12:53:06;;;;;;;12.43;6.30;;;32.40;25.90;;;;;;4928926;29;20127;-57
2021/08/27 12:55:33;;;;;;;11.98;6.68;;;32.30;25.70;;;;;;4932194;29;20100;-57